Time;durP1;ratioP1;P1;durP2;ratioP2;P2;SDS_P1;SDS_P2;PMS_P1;PMS_P2;Temp;Humidity;BMP_temperature;BMP_pressure;BME280_temperature;BME280_humidity;BME280_pressure;Samples;Min_cycle;Max_cycle;Signal;HPM_P1;HPM_P2
2021/11/01 00:00:13;;;;;;;7.43;4.77;;;;;;;10.60;100.00;94924.09;5035612;28;20483;-74
2021/11/01 00:02:40;;;;;;;8.43;5.13;;;;;;;10.67;100.00;94927.59;5046753;28;20040;-74
2021/11/01 00:05:07;;;;;;;9.43;5.23;;;;;;;10.69;99.86;94919.50;5023202;28;20467;-74
2021/11/01 00:07:33;;;;;;;8.63;4.97;;;;;;;10.65;99.94;94916.44;5039416;28;20068;-75
2021/11/01 00:09:59;;;;;;;7.47;4.60;;;;;;;10.59;100.00;94923.28;5034494;28;20087;-74
2021/11/01 00:12:29;;;;;;;8.80;5.50;;;;;;;10.63;100.00;94915.84;5012224;28;20037;-74
2021/11/01 00:14:55;;;;;;;8.57;4.80;;;;;;;10.67;100.00;94913.63;5059206;28;20036;-74
2021/11/01 00:17:22;;;;;;;9.10;4.80;;;;;;;10.67;100.00;94911.00;5012059;28;20029;-74
2021/11/01 00:19:47;;;;;;;9.67;4.40;;;;;;;10.61;100.00;94910.75;5044395;28;20111;-74
2021/11/01 00:22:13;;;;;;;7.00;4.10;;;;;;;10.61;100.00;94908.13;5016127;28;20107;-73
2021/11/01 00:24:40;;;;;;;8.93;4.73;;;;;;;10.65;100.00;94910.38;5033636;28;20033;-74
2021/11/01 00:27:06;;;;;;;8.00;4.63;;;;;;;10.56;100.00;94909.69;5055953;28;20024;-74
2021/11/01 00:29:31;;;;;;;6.67;4.20;;;;;;;10.53;100.00;94910.91;5067353;28;20047;-73
2021/11/01 00:31:57;;;;;;;8.37;4.47;;;;;;;10.56;100.00;94914.94;5016479;28;20036;-73
2021/11/01 00:34:23;;;;;;;8.53;4.70;;;;;;;10.52;100.00;94914.53;5044300;28;20036;-73
2021/11/01 00:36:49;;;;;;;7.83;5.07;;;;;;;10.50;100.00;94910.47;5046201;28;20032;-73
2021/11/01 00:39:15;;;;;;;8.03;5.43;;;;;;;10.46;100.00;94907.44;5041292;28;20127;-73
2021/11/01 00:41:41;;;;;;;9.13;5.80;;;;;;;10.48;100.00;94915.09;5038899;28;20030;-73
2021/11/01 00:44:07;;;;;;;7.40;4.47;;;;;;;10.48;100.00;94910.66;5056799;28;20036;-73
2021/11/01 00:46:32;;;;;;;8.63;5.27;;;;;;;10.43;100.00;94910.44;5035170;28;20723;-73
2021/11/01 00:48:58;;;;;;;8.03;5.67;;;;;;;10.49;100.00;94904.38;5048761;28;20037;-73
2021/11/01 00:51:24;;;;;;;8.13;4.73;;;;;;;10.61;100.00;94910.75;5059470;28;20033;-73
2021/11/01 00:53:50;;;;;;;6.63;3.80;;;;;;;10.66;100.00;94910.16;5053126;28;20028;-73
2021/11/01 00:56:16;;;;;;;4.93;3.33;;;;;;;10.74;99.82;94903.97;5049678;28;20032;-73
2021/11/01 00:58:43;;;;;;;7.37;3.83;;;;;;;10.83;99.12;94903.63;5042934;28;20142;-73
2021/11/01 01:01:09;;;;;;;6.27;3.73;;;;;;;10.90;98.45;94903.66;5038267;28;20025;-73
2021/11/01 01:03:35;;;;;;;5.47;2.87;;;;;;;10.98;97.70;94900.88;5050953;28;20043;-73
2021/11/01 01:06:03;;;;;;;5.43;2.90;;;;;;;11.02;97.55;94903.91;5059038;28;20100;-74
2021/11/01 01:08:29;;;;;;;8.13;3.77;;;;;;;11.04;97.01;94902.72;5036314;28;20037;-74
2021/11/01 01:10:55;;;;;;;4.93;3.13;;;;;;;11.02;97.29;94901.28;5040653;28;20047;-74
2021/11/01 01:13:24;;;;;;;4.87;3.00;;;;;;;11.03;97.79;94892.38;5043346;28;20036;-74
2021/11/01 01:18:21;;;;;;;6.33;4.03;;;;;;;11.09;96.78;94884.53;5051674;28;20398;-74
2021/11/01 01:20:46;;;;;;;5.83;3.20;;;;;;;11.02;97.95;94880.25;5066739;28;20037;-75
2021/11/01 01:23:12;;;;;;;5.50;3.07;;;;;;;11.05;97.20;94879.84;5031918;28;20040;-75
2021/11/01 01:25:44;;;;;;;6.10;3.10;;;;;;;11.04;97.67;94876.41;5014969;28;20108;-74
2021/11/01 01:28:13;;;;;;;6.20;3.20;;;;;;;11.02;97.21;94872.34;5014989;28;20180;-74
2021/11/01 01:30:40;;;;;;;10.37;5.83;;;;;;;10.95;99.18;94874.94;5049042;28;20079;-74
2021/11/01 01:33:10;;;;;;;6.07;3.47;;;;;;;11.05;97.82;94870.16;5048255;28;20035;-74
2021/11/01 01:35:39;;;;;;;4.30;2.50;;;;;;;11.08;97.33;94882.09;5026350;28;20028;-74
2021/11/01 01:38:06;;;;;;;4.13;2.57;;;;;;;11.06;97.86;94871.75;5057460;28;20025;-74
2021/11/01 01:40:32;;;;;;;6.23;2.50;;;;;;;10.99;98.64;94872.75;5031499;28;20033;-75
2021/11/01 01:42:58;;;;;;;5.90;3.50;;;;;;;10.91;99.32;94865.84;5048016;28;20059;-74
2021/11/01 01:45:24;;;;;;;6.73;3.63;;;;;;;10.83;100.00;94874.69;5046673;28;20060;-74
2021/11/01 01:47:50;;;;;;;7.37;3.20;;;;;;;10.81;99.75;94870.63;5032675;28;20032;-74
2021/11/01 01:50:17;;;;;;;5.47;2.80;;;;;;;10.75;99.98;94861.69;5018074;28;20048;-74
2021/11/01 01:52:43;;;;;;;5.93;3.00;;;;;;;10.77;100.00;94858.88;5029900;28;20037;-75
2021/11/01 01:55:13;;;;;;;7.40;4.10;;;;;;;10.79;100.00;94856.84;5047302;28;20617;-74
2021/11/01 01:57:40;;;;;;;5.77;3.20;;;;;;;10.73;100.00;94858.47;5031495;28;20083;-75
2021/11/01 02:00:26;;;;;;;5.67;3.27;;;;;;;10.71;100.00;94855.22;5065459;28;20082;-74
2021/11/01 02:02:52;;;;;;;6.33;3.80;;;;;;;10.71;100.00;94846.50;5036015;28;20109;-75
2021/11/01 02:05:18;;;;;;;7.13;3.50;;;;;;;10.70;100.00;94850.16;5030868;28;20425;-75
2021/11/01 02:07:53;;;;;;;6.43;3.43;;;;;;;10.64;100.00;94851.72;5047976;28;20154;-74
2021/11/01 02:10:29;;;;;;;6.40;3.43;;;;;;;10.59;100.00;94844.41;5061582;28;20044;-74
2021/11/01 02:13:17;;;;;;;6.60;3.43;;;;;;;10.57;100.00;94849.06;5031160;28;20039;-74
2021/11/01 02:15:53;;;;;;;7.53;3.53;;;;;;;10.49;100.00;94857.09;5012696;28;20048;-74
2021/11/01 02:18:21;;;;;;;9.63;3.60;;;;;;;10.49;100.00;94846.56;5064102;28;20111;-75
2021/11/01 02:20:47;;;;;;;4.53;2.50;;;;;;;10.50;100.00;94847.41;5064118;28;20107;-75
2021/11/01 02:23:21;;;;;;;4.90;2.33;;;;;;;10.53;100.00;94841.72;5054069;28;20111;-75
2021/11/01 02:25:56;;;;;;;4.60;1.90;;;;;;;10.53;100.00;94842.56;5029526;28;20080;-75
2021/11/01 02:28:30;;;;;;;4.43;2.10;;;;;;;10.56;100.00;94844.81;5041270;28;20032;-74
2021/11/01 02:30:57;;;;;;;4.60;2.27;;;;;;;10.65;100.00;94845.47;5050311;28;20067;-75
2021/11/01 02:33:24;;;;;;;3.90;2.17;;;;;;;10.83;100.00;94848.41;5060697;28;20078;-74
2021/11/01 02:35:51;;;;;;;4.10;2.27;;;;;;;10.90;100.00;94858.97;5025237;28;20063;-74
2021/11/01 02:38:21;;;;;;;7.80;2.07;;;;;;;10.91;100.00;94859.75;5052619;28;20054;-74
2021/11/01 02:40:48;;;;;;;4.00;2.27;;;;;;;10.96;100.00;94863.41;5016765;28;20094;-74
2021/11/01 02:43:15;;;;;;;3.57;1.97;;;;;;;11.04;100.00;94863.28;5035922;28;20055;-74
2021/11/01 02:45:41;;;;;;;4.13;2.30;;;;;;;11.13;100.00;94878.88;5025619;28;20043;-74
2021/11/01 02:48:07;;;;;;;3.20;1.87;;;;;;;11.12;100.00;94882.53;5030620;28;20674;-74
2021/11/01 02:50:33;;;;;;;4.03;2.23;;;;;;;11.20;99.82;94883.19;5066717;28;20035;-74
2021/11/01 02:53:00;;;;;;;5.10;2.37;;;;;;;11.28;99.31;94896.16;5012529;28;20383;-74
2021/11/01 02:55:26;;;;;;;4.50;1.90;;;;;;;11.33;99.70;94898.19;5053653;28;20036;-74
2021/11/01 02:57:52;;;;;;;4.37;2.17;;;;;;;11.37;100.00;94909.13;5055722;28;20031;-75
2021/11/01 03:00:21;;;;;;;5.33;2.40;;;;;;;11.49;100.00;94904.94;5062772;28;20032;-75
2021/11/01 03:02:48;;;;;;;4.27;2.33;;;;;;;11.35;100.00;94906.72;5029179;28;20448;-74
2021/11/01 03:05:17;;;;;;;6.23;2.90;;;;;;;11.16;100.00;94917.94;5031362;28;20763;-74
2021/11/01 03:07:44;;;;;;;7.17;3.00;;;;;;;10.94;100.00;94925.94;5048588;28;20036;-74
2021/11/01 03:10:11;;;;;;;6.57;3.20;;;;;;;10.66;100.00;94930.41;5045284;28;20068;-74
2021/11/01 03:12:40;;;;;;;7.37;3.40;;;;;;;10.37;100.00;94940.09;5053830;28;20463;-74
2021/11/01 03:15:08;;;;;;;6.40;3.63;;;;;;;10.33;100.00;94947.53;5044247;28;20439;-74
2021/11/01 03:17:41;;;;;;;7.47;3.80;;;;;;;10.29;100.00;94940.22;5015551;28;20151;-74
2021/11/01 03:20:38;;;;;;;5.25;3.15;;;;;;;10.19;100.00;94950.19;5032727;28;20106;-74
2021/11/01 03:23:11;;;;;;;6.33;3.40;;;;;;;10.10;100.00;94936.41;5049707;28;20353;-74
2021/11/01 03:26:09;;;;;;;5.43;3.47;;;;;;;10.05;100.00;94946.63;5031242;28;20028;-75
2021/11/01 03:28:37;;;;;;;6.60;3.60;;;;;;;10.09;100.00;94935.59;5023076;28;20032;-74
2021/11/01 03:31:05;;;;;;;6.43;3.67;;;;;;;10.10;100.00;94944.28;5008948;28;20017;-74
2021/11/01 03:33:38;;;;;;;6.07;3.40;;;;;;;10.04;100.00;94937.13;5038244;28;20032;-74
2021/11/01 03:36:06;;;;;;;6.57;3.50;;;;;;;10.03;100.00;94940.78;5033955;28;20096;-74
2021/11/01 03:38:33;;;;;;;7.00;3.60;;;;;;;10.06;100.00;94946.47;5032653;28;20330;-74
2021/11/01 03:41:05;;;;;;;6.60;3.80;;;;;;;10.08;100.00;94944.44;5060922;28;20126;-74
2021/11/01 03:43:36;;;;;;;6.27;3.30;;;;;;;10.09;100.00;94951.34;5060183;28;20383;-75
2021/11/01 03:46:04;;;;;;;5.83;3.23;;;;;;;10.12;100.00;94939.63;5043203;28;20028;-74
2021/11/01 03:48:36;;;;;;;5.30;2.63;;;;;;;10.07;100.00;94927.06;5038872;28;20020;-74
2021/11/01 03:53:33;;;;;;;8.77;2.40;;;;;;;10.09;100.00;94937.38;5053261;28;20118;-75
2021/11/01 03:55:58;;;;;;;7.30;2.67;;;;;;;10.05;100.00;94939.56;5031078;28;20453;-74
2021/11/01 03:58:25;;;;;;;4.93;2.37;;;;;;;10.02;100.00;94937.31;5048663;28;20029;-74
2021/11/01 04:00:52;;;;;;;7.33;3.23;;;;;;;10.02;100.00;94939.94;5028788;28;20099;-75
2021/11/01 04:03:23;;;;;;;5.63;2.23;;;;;;;10.04;100.00;94943.19;5039124;28;20029;-75
2021/11/01 04:05:52;;;;;;;5.87;2.57;;;;;;;10.05;100.00;94934.31;5049644;28;20024;-75
2021/11/01 04:08:18;;;;;;;5.83;2.30;;;;;;;10.06;100.00;94946.47;5057807;28;20482;-75
2021/11/01 04:10:44;;;;;;;7.33;2.67;;;;;;;10.06;100.00;94959.59;5044497;28;20032;-75
2021/11/01 04:13:11;;;;;;;6.40;2.30;;;;;;;10.13;100.00;94973.59;5042215;28;20025;-74
2021/11/01 04:15:44;;;;;;;7.33;2.03;;;;;;;10.04;100.00;94992.28;5065463;28;20044;-75
2021/11/01 04:18:12;;;;;;;6.23;2.10;;;;;;;9.98;100.00;95011.41;5030311;28;20119;-75
2021/11/01 04:20:53;;;;;;;7.60;2.30;;;;;;;9.92;100.00;95010.34;5046713;28;20479;-75
2021/11/01 04:23:22;;;;;;;4.03;1.80;;;;;;;9.83;100.00;95012.28;5032869;28;20091;-74
2021/11/01 04:25:48;;;;;;;5.77;2.00;;;;;;;9.76;100.00;95011.38;5034724;28;20092;-74
2021/11/01 04:28:13;;;;;;;5.03;2.23;;;;;;;9.76;100.00;95000.06;5030600;28;20108;-74
2021/11/01 04:30:42;;;;;;;4.40;1.57;;;;;;;9.67;100.00;95004.59;5033586;28;20474;-74
2021/11/01 04:33:12;;;;;;;4.20;1.53;;;;;;;9.53;100.00;94982.63;5060218;28;20051;-75
2021/11/01 04:35:39;;;;;;;5.20;2.17;;;;;;;9.52;100.00;94988.88;5038243;28;20108;-74
2021/11/01 04:38:36;;;;;;;5.13;2.13;;;;;;;9.43;100.00;94997.84;5068806;28;20048;-75
2021/11/01 04:41:18;;;;;;;5.10;2.23;;;;;;;9.38;100.00;95015.94;5051357;28;20036;-75
2021/11/01 04:54:31;;;;;;;5.03;1.40;;;;;;;9.23;100.00;95046.63;5044535;28;20033;-74
2021/11/01 04:56:57;;;;;;;5.73;2.20;;;;;;;9.26;100.00;95052.31;5045143;28;20399;-74
2021/11/01 04:59:23;;;;;;;6.27;1.67;;;;;;;9.21;100.00;95058.09;5052992;28;20215;-74
2021/11/01 05:01:53;;;;;;;7.90;2.00;;;;;;;9.25;100.00;95057.72;5055917;28;20021;-75
2021/11/01 05:04:23;;;;;;;3.53;0.97;;;;;;;9.19;100.00;95051.41;5037469;28;20025;-76
2021/11/01 05:07:09;;;;;;;4.03;1.70;;;;;;;9.30;100.00;95052.78;5050432;28;20063;-76
2021/11/01 05:20:23;;;;;;;;;;;;;;;8.99;100.00;95082.56;5059023;28;20247;-74
2021/11/01 05:25:45;;;;;;;1.87;0.60;;;;;;;9.11;100.00;95083.75;5037234;28;20037;-74
2021/11/01 05:28:27;;;;;;;3.83;1.03;;;;;;;8.95;100.00;95086.53;5053843;28;20470;-74
2021/11/01 05:31:01;;;;;;;0.90;0.40;;;;;;;9.02;100.00;95084.84;5033858;28;20035;-74
2021/11/01 05:35:55;;;;;;;2.47;0.50;;;;;;;8.90;100.00;95092.31;5043892;28;20021;-76
2021/11/01 05:38:21;;;;;;;3.03;0.50;;;;;;;8.80;100.00;95091.75;5060253;28;20021;-75
2021/11/01 05:40:46;;;;;;;1.23;0.40;;;;;;;8.69;100.00;95085.09;5053371;28;20024;-76
2021/11/01 05:43:12;;;;;;;2.80;0.60;;;;;;;8.69;100.00;95079.88;5049323;28;20442;-76
2021/11/01 05:45:38;;;;;;;4.50;0.60;;;;;;;8.69;100.00;95082.50;5065612;28;20024;-76
2021/11/01 05:48:04;;;;;;;2.43;0.70;;;;;;;8.74;100.00;95087.19;5042983;28;20037;-75
2021/11/01 05:50:32;;;;;;;2.83;0.50;;;;;;;8.68;100.00;95093.94;5071205;28;20028;-75
2021/11/01 05:52:59;;;;;;;3.90;0.70;;;;;;;8.65;100.00;95088.25;5041257;28;20033;-76
2021/11/01 06:15:54;;;;;;;4.27;0.57;;;;;;;8.36;100.00;95122.97;5067138;28;20611;-75
2021/11/01 06:18:21;;;;;;;2.87;0.90;;;;;;;8.43;100.00;95118.69;5055430;28;20477;-75
2021/11/01 06:20:46;;;;;;;3.73;0.80;;;;;;;8.42;100.00;95119.69;5043633;28;20041;-74
2021/11/01 06:23:13;;;;;;;4.20;1.37;;;;;;;8.39;100.00;95110.38;5061482;28;20024;-74
2021/11/01 06:25:39;;;;;;;2.93;0.67;;;;;;;8.38;100.00;95124.44;5061011;28;20192;-74
2021/11/01 06:28:09;;;;;;;3.03;0.90;;;;;;;8.36;100.00;95117.72;5028731;28;20029;-74
2021/11/01 06:30:42;;;;;;;3.73;1.53;;;;;;;8.37;100.00;95129.84;5057393;28;20088;-74
2021/11/01 07:16:53;;;;;;;6.00;1.23;;;;;;;8.64;100.00;95154.75;5044260;28;20046;-74
2021/11/01 08:21:51;;;;;;;9.03;2.80;;;;;;;8.70;100.00;95188.94;5043747;28;20490;-74
2021/11/01 08:24:39;;;;;;;5.87;2.53;;;;;;;8.58;100.00;95187.69;5030475;28;20127;-74
2021/11/01 08:43:26;;;;;;;3.50;0.93;;;;;;;8.71;100.00;95197.63;5059311;28;20098;-74
2021/11/01 08:45:55;;;;;;;2.00;0.97;;;;;;;8.62;100.00;95194.25;5035336;28;20044;-74
2021/11/01 08:51:29;;;;;;;1.60;0.57;;;;;;;8.40;100.00;95195.81;5048689;28;20478;-74
2021/11/01 09:07:26;;;;;;;3.93;1.23;;;;;;;8.25;100.00;95198.34;5064998;28;20028;-74
2021/11/01 09:39:02;;;;;;;4.70;1.30;;;;;;;8.24;100.00;95201.91;5070111;28;20047;-73
2021/11/01 09:41:29;;;;;;;3.43;1.43;;;;;;;8.18;100.00;95202.63;5058545;28;20377;-73
2021/11/01 09:43:58;;;;;;;2.23;1.10;;;;;;;8.17;100.00;95202.78;5038575;28;20063;-73
2021/11/01 09:46:25;;;;;;;3.53;1.17;;;;;;;8.13;100.00;95198.88;5022104;28;20146;-73
2021/11/01 09:51:34;;;;;;;7.20;2.58;;;;;;;8.15;100.00;95200.34;5067089;28;20034;-74
2021/11/01 09:54:00;;;;;;;9.90;3.80;;;;;;;8.01;100.00;95194.00;5057867;28;20029;-74
2021/11/01 09:59:11;;;;;;;9.50;4.00;;;;;;;8.15;100.00;95191.63;5054921;28;20060;-73
2021/11/01 10:01:37;;;;;;;27.93;12.83;;;;;;;8.14;100.00;95196.06;5038578;28;20039;-73
2021/11/01 10:04:03;;;;;;;18.63;8.87;;;;;;;8.09;100.00;95206.25;5064109;28;20537;-73
2021/11/01 10:06:30;;;;;;;27.53;12.13;;;;;;;8.12;100.00;95200.69;5056758;28;20041;-73
2021/11/01 10:08:59;;;;;;;19.90;7.70;;;;;;;8.09;100.00;95198.41;5043029;28;20032;-73
2021/11/01 10:11:31;;;;;;;10.67;5.27;;;;;;;8.00;100.00;95194.16;5062234;28;20048;-73
2021/11/01 10:14:03;;;;;;;13.70;6.57;;;;;;;8.02;100.00;95192.19;5036173;28;20060;-73
2021/11/01 10:19:34;;;;;;;21.97;8.33;;;;;;;8.10;100.00;95194.78;5060513;28;20029;-73
2021/11/01 10:22:07;;;;;;;23.00;9.17;;;;;;;8.14;100.00;95196.06;5029403;28;20028;-74
2021/11/01 10:24:39;;;;;;;6.75;2.90;;;;;;;8.08;100.00;95186.28;5041696;28;20037;-74
2021/11/01 10:27:31;;;;;;;6.97;2.60;;;;;;;8.08;100.00;95186.28;5055375;28;20071;-74
2021/11/01 10:30:10;;;;;;;8.03;2.93;;;;;;;8.14;100.00;95195.25;5056217;28;20039;-73
2021/11/01 10:32:45;;;;;;;7.57;3.33;;;;;;;8.12;100.00;95182.34;5030672;28;20548;-73
2021/11/01 10:35:30;;;;;;;8.67;3.67;;;;;;;8.16;100.00;95177.59;5070160;28;20083;-74
2021/11/01 10:40:49;;;;;;;3.40;2.00;;;;;;;8.26;100.00;95165.09;5059222;28;20030;-74
2021/11/01 11:11:52;;;;;;;9.13;3.30;;;;;;;8.38;100.00;95161.13;5042930;28;20518;-75
2021/11/01 11:14:42;;;;;;;7.28;1.95;;;;;;;8.37;100.00;95161.28;5028642;28;20440;-75
2021/11/01 11:17:26;;;;;;;5.80;1.83;;;;;;;8.41;100.00;95165.19;5060723;28;20056;-75
2021/11/01 11:20:29;;;;;;;4.77;1.23;;;;;;;8.37;100.00;95167.31;5048427;28;20048;-75
2021/11/01 11:28:52;;;;;;;7.17;2.43;;;;;;;8.39;100.00;95167.19;5059430;28;20496;-76
2021/11/01 11:47:40;;;;;;;6.10;2.80;;;;;;;8.43;100.00;95171.09;5061700;28;20596;-76
2021/11/01 11:50:18;;;;;;;5.93;2.20;;;;;;;8.44;100.00;95154.38;5038253;28;20033;-75
2021/11/01 11:52:45;;;;;;;5.87;1.30;;;;;;;8.48;100.00;95158.28;5045670;28;20041;-73
2021/11/01 11:55:24;;;;;;;6.10;1.97;;;;;;;8.52;100.00;95143.03;5032806;28;20060;-74
2021/11/01 11:57:56;;;;;;;4.37;1.63;;;;;;;8.56;100.00;95134.66;5049485;28;20024;-75
2021/11/01 12:00:26;;;;;;;5.10;2.00;;;;;;;8.64;100.00;95128.53;5038286;28;20049;-76
2021/11/01 12:02:53;;;;;;;6.00;1.97;;;;;;;8.59;100.00;95126.47;5046217;28;20128;-76
2021/11/01 12:05:48;;;;;;;8.63;3.17;;;;;;;8.66;100.00;95106.44;5047737;28;20461;-75
2021/11/01 12:08:25;;;;;;;13.83;7.67;;;;;;;8.57;100.00;95104.03;5038076;28;20613;-75
2021/11/01 12:19:03;;;;;;;4.93;1.70;;;;;;;8.50;100.00;95135.34;5043414;28;20032;-75
2021/11/01 12:21:31;;;;;;;6.70;2.90;;;;;;;8.60;100.00;95146.44;5057416;28;20478;-75
2021/11/01 12:23:57;;;;;;;8.63;4.00;;;;;;;8.56;100.00;95152.19;5042511;28;20685;-75
2021/11/01 12:26:26;;;;;;;10.73;4.23;;;;;;;8.53;100.00;95155.97;5038863;28;20029;-75
2021/11/01 12:28:55;;;;;;;9.53;3.63;;;;;;;8.45;100.00;95156.00;5039619;28;20095;-75
2021/11/01 12:31:21;;;;;;;10.03;5.23;;;;;;;8.45;100.00;95162.09;5046592;28;20059;-75
2021/11/01 12:39:35;;;;;;;9.03;3.80;;;;;;;8.50;100.00;95143.22;5040279;28;20090;-75
2021/11/01 12:47:49;;;;;;;7.37;2.73;;;;;;;8.51;100.00;95113.41;5049091;28;20028;-75
2021/11/01 12:58:37;;;;;;;1.77;0.73;;;;;;;8.50;100.00;95081.16;5036644;28;20048;-75
2021/11/01 13:01:08;;;;;;;3.87;1.23;;;;;;;8.54;100.00;95086.84;5059270;28;20028;-75
2021/11/01 13:03:36;;;;;;;4.27;2.00;;;;;;;8.57;100.00;95081.25;5051304;28;20033;-75
2021/11/01 13:06:14;;;;;;;4.87;2.13;;;;;;;8.62;100.00;95060.59;5051180;28;20021;-75
2021/11/01 13:08:49;;;;;;;2.43;1.17;;;;;;;8.61;100.00;95061.56;5047068;28;20032;-75
2021/11/01 13:11:39;;;;;;;3.67;1.50;;;;;;;8.54;100.00;95052.78;5070910;28;20626;-75
2021/11/01 13:19:24;;;;;;;4.57;2.00;;;;;;;8.57;100.00;95083.06;5059895;28;20551;-74
2021/11/01 13:22:05;;;;;;;5.57;2.83;;;;;;;8.53;100.00;95095.72;5037595;28;20108;-75
2021/11/01 13:38:45;;;;;;;3.03;0.90;;;;;;;8.46;100.00;95060.72;5041125;28;20025;-75
2021/11/01 13:41:22;;;;;;;1.90;0.83;;;;;;;8.52;100.00;95052.16;5031791;28;20040;-75
2021/11/01 13:43:50;;;;;;;2.60;1.00;;;;;;;8.42;100.00;95041.91;5025207;28;20028;-76
2021/11/01 13:46:15;;;;;;;5.67;0.80;;;;;;;8.44;100.00;95033.88;5048032;28;20051;-75
2021/11/01 13:48:42;;;;;;;1.80;0.90;;;;;;;8.45;100.00;95040.72;5044156;28;20037;-74
2021/11/01 13:51:13;;;;;;;3.30;1.00;;;;;;;8.43;100.00;95043.53;5043860;28;20022;-75
2021/11/01 13:54:09;;;;;;;1.50;0.70;;;;;;;8.50;100.00;95049.69;5025538;28;20052;-76
2021/11/01 13:59:35;;;;;;;3.40;1.30;;;;;;;8.46;100.00;95060.72;5028400;28;20029;-75
2021/11/01 14:16:18;;;;;;;3.67;1.33;;;;;;;8.45;100.00;95035.50;5047714;28;20070;-74
2021/11/01 14:18:51;;;;;;;3.27;0.90;;;;;;;8.38;100.00;95021.47;5047653;28;20119;-75
2021/11/01 14:27:17;;;;;;;2.37;0.93;;;;;;;8.42;100.00;95035.88;5055202;28;20036;-75
2021/11/01 14:30:04;;;;;;;3.17;1.57;;;;;;;8.37;100.00;95028.47;5019044;28;20036;-74
2021/11/01 14:32:55;;;;;;;6.03;1.63;;;;;;;8.30;100.00;95022.31;5043330;28;20064;-75
2021/11/01 14:35:34;;;;;;;4.03;1.47;;;;;;;8.32;100.00;95024.78;5051705;28;20029;-75
2021/11/01 15:13:12;;;;;;;4.10;1.50;;;;;;;7.99;100.00;95023.19;5041310;28;20041;-75
2021/11/01 15:34:17;;;;;;;4.93;1.90;;;;;;;7.85;100.00;95030.97;5047688;28;20543;-75
2021/11/01 16:18:16;;;;;;;4.07;2.33;;;;;;;7.70;100.00;95025.63;5034119;28;20064;-74
2021/11/01 16:20:43;;;;;;;4.20;2.00;;;;;;;7.73;100.00;95010.38;5042926;28;20021;-74
2021/11/01 16:25:38;;;;;;;6.43;3.03;;;;;;;7.63;100.00;95035.13;5053313;28;20040;-75
2021/11/01 16:28:05;;;;;;;4.83;2.90;;;;;;;7.62;100.00;95026.47;5033591;28;20036;-74
2021/11/01 16:30:33;;;;;;;4.10;2.53;;;;;;;7.61;100.00;95030.06;5054967;28;20024;-75
2021/11/01 16:33:04;;;;;;;5.07;2.63;;;;;;;7.64;100.00;95032.34;5046112;28;20041;-74
2021/11/01 16:35:38;;;;;;;4.40;2.05;;;;;;;7.65;100.00;95034.00;5034479;28;20632;-75
2021/11/01 16:38:19;;;;;;;5.25;3.10;;;;;;;7.70;100.00;95031.66;5021975;28;20069;-75
2021/11/01 16:40:46;;;;;;;6.27;3.20;;;;;;;7.71;100.00;95028.09;5039478;28;20072;-75
2021/11/01 16:43:17;;;;;;;8.47;5.33;;;;;;;7.70;100.00;95034.28;5038744;28;20028;-74
2021/11/01 16:45:46;;;;;;;10.37;5.43;;;;;;;7.75;100.00;95031.97;5032049;28;20028;-75
2021/11/01 16:48:12;;;;;;;7.63;4.50;;;;;;;7.75;100.00;95039.03;5038138;28;20028;-75
2021/11/01 16:50:40;;;;;;;7.20;3.60;;;;;;;7.77;100.00;95027.38;5038042;28;20505;-75
2021/11/01 16:53:07;;;;;;;6.50;3.17;;;;;;;7.80;100.00;95019.19;5033153;28;20021;-75
2021/11/01 16:55:47;;;;;;;4.50;2.77;;;;;;;7.80;100.00;95028.84;5046798;28;20029;-76
2021/11/01 16:58:19;;;;;;;4.70;2.63;;;;;;;7.85;100.00;95037.00;5053964;28;20040;-75
2021/11/01 17:01:03;;;;;;;5.73;3.00;;;;;;;7.85;100.00;95034.38;5033101;28;20597;-75
2021/11/01 17:03:39;;;;;;;7.17;3.27;;;;;;;7.89;100.00;95037.47;5037164;28;20055;-74
2021/11/01 17:21:14;;;;;;;5.47;3.30;;;;;;;7.91;100.00;95028.44;5044534;28;20128;-75
2021/11/01 17:36:22;;;;;;;8.23;4.40;;;;;;;7.91;100.00;95019.78;5051655;28;20033;-75
2021/11/01 18:38:04;;;;;;;9.37;5.93;;;;;;;7.70;100.00;95015.97;5030542;28;20021;-76
2021/11/01 18:43:13;;;;;;;8.73;5.47;;;;;;;7.56;100.00;95014.06;5034230;28;20056;-76
2021/11/01 18:51:29;;;;;;;8.53;6.10;;;;;;;7.44;100.00;95004.97;5050467;28;20439;-76
2021/11/01 18:54:17;;;;;;;8.00;5.70;;;;;;;7.49;100.00;95002.66;5039406;28;20032;-76
2021/11/01 18:56:45;;;;;;;9.80;5.57;;;;;;;7.50;100.00;95004.28;5039194;28;21315;-76
2021/11/01 18:59:11;;;;;;;9.07;5.83;;;;;;;7.51;100.00;95014.59;5026242;28;20048;-76
2021/11/01 19:01:41;;;;;;;6.87;4.57;;;;;;;7.49;100.00;95013.13;5021255;28;20028;-75
2021/11/01 19:04:34;;;;;;;6.53;4.43;;;;;;;7.55;100.00;95020.31;5041673;28;20734;-76
2021/11/01 19:07:08;;;;;;;7.17;4.83;;;;;;;7.55;100.00;95017.69;5040148;28;20036;-75
2021/11/01 21:25:51;;;;;;;14.83;8.73;;;;;;;6.84;100.00;95003.66;5061448;28;20039;-72
2021/11/01 21:28:18;;;;;;;12.83;8.83;;;;;;;6.79;100.00;94998.94;5062299;28;20024;-73
2021/11/01 21:30:44;;;;;;;12.83;8.13;;;;;;;6.78;100.00;94992.09;5017535;28;20039;-73
2021/11/01 21:33:14;;;;;;;15.07;9.27;;;;;;;6.73;100.00;95004.03;5027801;28;20103;-75
2021/11/01 21:35:44;;;;;;;13.20;8.43;;;;;;;6.69;100.00;95003.53;5035826;28;20035;-75
2021/11/01 21:38:12;;;;;;;15.77;9.90;;;;;;;6.68;100.00;95004.53;5058966;28;20047;-75
2021/11/01 21:40:38;;;;;;;15.07;9.93;;;;;;;6.67;100.00;95002.88;5040425;28;20060;-76
2021/11/01 21:43:04;;;;;;;19.23;11.33;;;;;;;6.62;100.00;94992.13;5050051;28;20095;-75
2021/11/01 21:45:29;;;;;;;14.20;9.13;;;;;;;6.54;100.00;94997.38;5062846;28;20029;-76
2021/11/01 21:47:55;;;;;;;9.10;6.40;;;;;;;6.49;100.00;94997.03;5043063;28;20476;-75
2021/11/01 21:50:21;;;;;;;9.33;6.60;;;;;;;6.51;100.00;95000.31;5059202;28;20106;-75
2021/11/01 21:52:48;;;;;;;9.87;7.10;;;;;;;6.44;100.00;94996.69;5049059;28;20068;-76
2021/11/01 21:55:17;;;;;;;9.80;6.53;;;;;;;6.43;100.00;94993.28;5036925;28;20082;-74
2021/11/01 21:57:52;;;;;;;9.10;6.27;;;;;;;6.38;100.00;94995.56;5024965;28;20028;-75
2021/11/01 22:24:18;;;;;;;9.40;6.47;;;;;;;6.19;100.00;94965.38;5061092;28;20040;-75
2021/11/01 22:26:58;;;;;;;9.77;6.60;;;;;;;6.14;100.00;94960.66;5031608;28;20032;-75
2021/11/01 22:40:36;;;;;;;11.13;6.07;;;;;;;5.95;100.00;94947.91;5046531;28;20086;-75
2021/11/01 22:56:05;;;;;;;10.03;5.87;;;;;;;5.62;100.00;94955.66;5048555;28;20063;-75
2021/11/01 22:58:39;;;;;;;9.13;6.23;;;;;;;5.59;100.00;94944.75;5022877;28;20070;-74
2021/11/01 23:01:39;;;;;;;8.87;5.87;;;;;;;5.54;100.00;94931.38;5046929;28;20649;-76
2021/11/01 23:33:37;;;;;;;7.60;4.70;;;;;;;5.08;100.00;94910.88;5032427;28;20025;-75
2021/11/01 23:36:03;;;;;;;8.53;5.37;;;;;;;5.06;100.00;94914.63;5049230;28;20028;-74
2021/11/01 23:38:29;;;;;;;8.70;5.80;;;;;;;5.09;100.00;94911.69;5031836;28;20045;-75
2021/11/01 23:40:55;;;;;;;9.50;5.77;;;;;;;5.08;100.00;94905.69;5056948;28;20024;-75
2021/11/01 23:43:21;;;;;;;9.83;5.50;;;;;;;5.08;100.00;94902.25;5054573;28;20474;-74
2021/11/01 23:45:47;;;;;;;8.57;5.77;;;;;;;5.07;100.00;94908.44;5033693;28;20755;-75
2021/11/01 23:48:14;;;;;;;8.53;5.33;;;;;;;5.07;100.00;94906.66;5035247;28;20063;-75
2021/11/01 23:50:42;;;;;;;9.90;6.33;;;;;;;5.07;100.00;94903.25;5018328;28;20107;-75
2021/11/01 23:55:33;;;;;;;8.20;5.60;;;;;;;5.01;100.00;94903.88;5046736;28;20466;-74
2021/11/01 23:58:00;;;;;;;9.43;5.90;;;;;;;4.99;100.00;94898.78;5041451;28;20041;-75
